sensor_id;sensor_type;location;lat;lon;timestamp;P1;durP1;ratioP1;P2;durP2;ratioP2
69401;SDS011;56589;51.992;5.924;2023-10-09T00:01:31;33.78;;;15.30;;
69401;SDS011;56589;51.992;5.924;2023-10-09T00:03:59;32.25;;;15.75;;
69401;SDS011;56589;51.992;5.924;2023-10-09T00:06:25;28.05;;;15.48;;
69401;SDS011;56589;51.992;5.924;2023-10-09T00:08:51;31.70;;;14.55;;
69401;SDS011;56589;51.992;5.924;2023-10-09T00:11:22;34.20;;;14.68;;
69401;SDS011;56589;51.992;5.924;2023-10-09T00:13:48;32.25;;;15.43;;
69401;SDS011;56589;51.992;5.924;2023-10-09T00:16:14;34.20;;;15.85;;
69401;SDS011;56589;51.992;5.924;2023-10-09T00:18:42;32.60;;;15.02;;
69401;SDS011;56589;51.992;5.924;2023-10-09T00:21:16;28.83;;;14.82;;
69401;SDS011;56589;51.992;5.924;2023-10-09T00:23:46;30.85;;;16.25;;
69401;SDS011;56589;51.992;5.924;2023-10-09T00:26:18;31.90;;;15.93;;
69401;SDS011;56589;51.992;5.924;2023-10-09T00:28:51;31.40;;;14.77;;
69401;SDS011;56589;51.992;5.924;2023-10-09T00:31:20;31.88;;;15.32;;
69401;SDS011;56589;51.992;5.924;2023-10-09T00:33:46;37.08;;;17.95;;
69401;SDS011;56589;51.992;5.924;2023-10-09T00:36:11;34.50;;;16.13;;
69401;SDS011;56589;51.992;5.924;2023-10-09T00:38:46;33.90;;;16.60;;
69401;SDS011;56589;51.992;5.924;2023-10-09T00:41:14;28.90;;;15.38;;
69401;SDS011;56589;51.992;5.924;2023-10-09T00:43:41;32.72;;;15.40;;
69401;SDS011;56589;51.992;5.924;2023-10-09T00:46:10;33.60;;;16.48;;
69401;SDS011;56589;51.992;5.924;2023-10-09T00:48:40;33.78;;;15.60;;
69401;SDS011;56589;51.992;5.924;2023-10-09T00:53:36;31.38;;;16.38;;
69401;SDS011;56589;51.992;5.924;2023-10-09T00:56:04;37.03;;;16.33;;
69401;SDS011;56589;51.992;5.924;2023-10-09T00:58:32;33.67;;;16.33;;
69401;SDS011;56589;51.992;5.924;2023-10-09T01:01:12;30.95;;;16.55;;
69401;SDS011;56589;51.992;5.924;2023-10-09T01:03:38;37.53;;;17.83;;
69401;SDS011;56589;51.992;5.924;2023-10-09T01:06:07;37.75;;;17.42;;
69401;SDS011;56589;51.992;5.924;2023-10-09T01:08:39;32.33;;;16.23;;
69401;SDS011;56589;51.992;5.924;2023-10-09T01:11:12;30.70;;;17.25;;
69401;SDS011;56589;51.992;5.924;2023-10-09T01:13:41;35.15;;;17.45;;
69401;SDS011;56589;51.992;5.924;2023-10-09T01:16:13;38.97;;;18.92;;
69401;SDS011;56589;51.992;5.924;2023-10-09T01:18:39;33.30;;;16.17;;
69401;SDS011;56589;51.992;5.924;2023-10-09T01:21:05;35.88;;;18.13;;
69401;SDS011;56589;51.992;5.924;2023-10-09T01:23:34;34.75;;;17.73;;
69401;SDS011;56589;51.992;5.924;2023-10-09T01:26:03;35.25;;;17.38;;
69401;SDS011;56589;51.992;5.924;2023-10-09T01:28:35;34.00;;;17.80;;
69401;SDS011;56589;51.992;5.924;2023-10-09T01:31:00;34.20;;;16.80;;
69401;SDS011;56589;51.992;5.924;2023-10-09T01:33:27;35.75;;;17.88;;
69401;SDS011;56589;51.992;5.924;2023-10-09T01:35:53;35.00;;;17.23;;
69401;SDS011;56589;51.992;5.924;2023-10-09T01:38:18;33.55;;;16.08;;
69401;SDS011;56589;51.992;5.924;2023-10-09T01:40:47;36.88;;;17.23;;
69401;SDS011;56589;51.992;5.924;2023-10-09T01:43:13;30.73;;;17.05;;
69401;SDS011;56589;51.992;5.924;2023-10-09T01:45:39;33.88;;;18.15;;
69401;SDS011;56589;51.992;5.924;2023-10-09T01:48:05;35.42;;;17.55;;
69401;SDS011;56589;51.992;5.924;2023-10-09T01:50:31;31.38;;;17.10;;
69401;SDS011;56589;51.992;5.924;2023-10-09T01:52:59;33.30;;;16.83;;
69401;SDS011;56589;51.992;5.924;2023-10-09T01:55:24;29.70;;;16.65;;
69401;SDS011;56589;51.992;5.924;2023-10-09T01:57:53;30.15;;;16.08;;
69401;SDS011;56589;51.992;5.924;2023-10-09T02:00:19;28.48;;;15.98;;
69401;SDS011;56589;51.992;5.924;2023-10-09T02:02:45;29.55;;;16.23;;
69401;SDS011;56589;51.992;5.924;2023-10-09T02:05:11;34.92;;;15.75;;
69401;SDS011;56589;51.992;5.924;2023-10-09T02:07:37;32.03;;;15.57;;
69401;SDS011;56589;51.992;5.924;2023-10-09T02:10:03;36.13;;;17.30;;
69401;SDS011;56589;51.992;5.924;2023-10-09T02:12:29;31.73;;;15.63;;
69401;SDS011;56589;51.992;5.924;2023-10-09T02:14:58;28.52;;;16.92;;
69401;SDS011;56589;51.992;5.924;2023-10-09T02:17:24;31.67;;;15.07;;
69401;SDS011;56589;51.992;5.924;2023-10-09T02:19:50;31.33;;;16.60;;
69401;SDS011;56589;51.992;5.924;2023-10-09T02:22:16;30.45;;;16.30;;
69401;SDS011;56589;51.992;5.924;2023-10-09T02:24:42;31.30;;;15.88;;
69401;SDS011;56589;51.992;5.924;2023-10-09T02:27:09;30.08;;;16.17;;
69401;SDS011;56589;51.992;5.924;2023-10-09T02:29:35;26.15;;;15.57;;
69401;SDS011;56589;51.992;5.924;2023-10-09T02:32:04;29.25;;;15.52;;
69401;SDS011;56589;51.992;5.924;2023-10-09T02:34:29;31.90;;;16.75;;
69401;SDS011;56589;51.992;5.924;2023-10-09T02:36:55;31.70;;;16.85;;
69401;SDS011;56589;51.992;5.924;2023-10-09T02:39:21;28.98;;;16.63;;
69401;SDS011;56589;51.992;5.924;2023-10-09T02:41:47;30.27;;;16.75;;
69401;SDS011;56589;51.992;5.924;2023-10-09T02:44:13;29.85;;;16.45;;
69401;SDS011;56589;51.992;5.924;2023-10-09T02:46:38;35.15;;;16.90;;
69401;SDS011;56589;51.992;5.924;2023-10-09T02:49:07;28.23;;;15.48;;
69401;SDS011;56589;51.992;5.924;2023-10-09T02:51:32;27.45;;;16.23;;
69401;SDS011;56589;51.992;5.924;2023-10-09T02:53:59;31.38;;;17.20;;
69401;SDS011;56589;51.992;5.924;2023-10-09T02:56:26;30.45;;;18.50;;
69401;SDS011;56589;51.992;5.924;2023-10-09T02:58:52;32.28;;;17.15;;
69401;SDS011;56589;51.992;5.924;2023-10-09T03:01:18;31.95;;;17.55;;
69401;SDS011;56589;51.992;5.924;2023-10-09T03:03:44;33.92;;;17.33;;
69401;SDS011;56589;51.992;5.924;2023-10-09T03:06:13;30.98;;;16.33;;
69401;SDS011;56589;51.992;5.924;2023-10-09T03:08:40;31.88;;;16.98;;
69401;SDS011;56589;51.992;5.924;2023-10-09T03:11:07;39.55;;;18.20;;
69401;SDS011;56589;51.992;5.924;2023-10-09T03:13:33;28.60;;;17.13;;
69401;SDS011;56589;51.992;5.924;2023-10-09T03:15:58;30.48;;;16.48;;
69401;SDS011;56589;51.992;5.924;2023-10-09T03:18:26;31.30;;;16.95;;
69401;SDS011;56589;51.992;5.924;2023-10-09T03:20:52;34.03;;;16.58;;
69401;SDS011;56589;51.992;5.924;2023-10-09T03:23:20;31.40;;;17.90;;
69401;SDS011;56589;51.992;5.924;2023-10-09T03:25:46;30.17;;;16.92;;
69401;SDS011;56589;51.992;5.924;2023-10-09T03:28:12;29.67;;;17.73;;
69401;SDS011;56589;51.992;5.924;2023-10-09T03:30:38;32.17;;;17.08;;
69401;SDS011;56589;51.992;5.924;2023-10-09T03:33:04;28.25;;;16.33;;
69401;SDS011;56589;51.992;5.924;2023-10-09T03:35:29;32.33;;;16.10;;
69401;SDS011;56589;51.992;5.924;2023-10-09T03:37:56;27.90;;;16.40;;
69401;SDS011;56589;51.992;5.924;2023-10-09T03:40:25;29.77;;;16.70;;
69401;SDS011;56589;51.992;5.924;2023-10-09T03:42:52;32.95;;;17.52;;
69401;SDS011;56589;51.992;5.924;2023-10-09T03:45:18;33.45;;;17.27;;
69401;SDS011;56589;51.992;5.924;2023-10-09T03:47:44;31.55;;;16.58;;
69401;SDS011;56589;51.992;5.924;2023-10-09T03:50:10;25.90;;;16.13;;
69401;SDS011;56589;51.992;5.924;2023-10-09T03:52:36;31.52;;;16.73;;
69401;SDS011;56589;51.992;5.924;2023-10-09T03:55:01;27.77;;;17.05;;
69401;SDS011;56589;51.992;5.924;2023-10-09T03:57:31;28.75;;;15.82;;
69401;SDS011;56589;51.992;5.924;2023-10-09T03:59:56;27.70;;;16.02;;
69401;SDS011;56589;51.992;5.924;2023-10-09T04:02:22;31.35;;;16.67;;
69401;SDS011;56589;51.992;5.924;2023-10-09T04:04:48;26.02;;;16.25;;
69401;SDS011;56589;51.992;5.924;2023-10-09T04:07:14;28.77;;;15.80;;
69401;SDS011;56589;51.992;5.924;2023-10-09T04:09:40;25.38;;;15.55;;
69401;SDS011;56589;51.992;5.924;2023-10-09T04:12:06;28.42;;;15.55;;
69401;SDS011;56589;51.992;5.924;2023-10-09T04:14:34;27.70;;;15.10;;
69401;SDS011;56589;51.992;5.924;2023-10-09T04:17:00;28.27;;;15.45;;
69401;SDS011;56589;51.992;5.924;2023-10-09T04:19:26;27.55;;;14.77;;
69401;SDS011;56589;51.992;5.924;2023-10-09T04:21:52;29.52;;;15.10;;
69401;SDS011;56589;51.992;5.924;2023-10-09T04:24:18;30.92;;;15.10;;
69401;SDS011;56589;51.992;5.924;2023-10-09T04:26:44;29.88;;;14.05;;
69401;SDS011;56589;51.992;5.924;2023-10-09T04:29:10;24.77;;;14.07;;
69401;SDS011;56589;51.992;5.924;2023-10-09T04:31:39;26.55;;;14.98;;
69401;SDS011;56589;51.992;5.924;2023-10-09T04:34:05;24.40;;;12.68;;
69401;SDS011;56589;51.992;5.924;2023-10-09T04:36:31;23.83;;;13.73;;
69401;SDS011;56589;51.992;5.924;2023-10-09T04:38:56;28.73;;;14.77;;
69401;SDS011;56589;51.992;5.924;2023-10-09T04:41:22;23.67;;;13.73;;
69401;SDS011;56589;51.992;5.924;2023-10-09T04:43:48;22.98;;;13.15;;
69401;SDS011;56589;51.992;5.924;2023-10-09T04:46:14;20.25;;;13.23;;
69401;SDS011;56589;51.992;5.924;2023-10-09T04:48:42;21.67;;;13.50;;
69401;SDS011;56589;51.992;5.924;2023-10-09T04:51:08;24.63;;;13.98;;
69401;SDS011;56589;51.992;5.924;2023-10-09T04:53:34;28.13;;;14.18;;
69401;SDS011;56589;51.992;5.924;2023-10-09T04:56:00;24.02;;;14.05;;
69401;SDS011;56589;51.992;5.924;2023-10-09T04:58:25;25.63;;;14.40;;
69401;SDS011;56589;51.992;5.924;2023-10-09T05:00:52;25.70;;;14.57;;
69401;SDS011;56589;51.992;5.924;2023-10-09T05:03:18;28.90;;;13.63;;
69401;SDS011;56589;51.992;5.924;2023-10-09T05:05:47;21.13;;;13.40;;
69401;SDS011;56589;51.992;5.924;2023-10-09T05:08:13;27.80;;;14.32;;
69401;SDS011;56589;51.992;5.924;2023-10-09T05:10:42;24.70;;;13.70;;
69401;SDS011;56589;51.992;5.924;2023-10-09T05:13:07;24.67;;;13.32;;
69401;SDS011;56589;51.992;5.924;2023-10-09T05:15:33;22.92;;;13.23;;
69401;SDS011;56589;51.992;5.924;2023-10-09T05:17:59;21.75;;;13.18;;
69401;SDS011;56589;51.992;5.924;2023-10-09T05:20:25;23.17;;;13.65;;
69401;SDS011;56589;51.992;5.924;2023-10-09T05:22:53;22.60;;;14.20;;
69401;SDS011;56589;51.992;5.924;2023-10-09T05:25:19;20.55;;;13.10;;
69401;SDS011;56589;51.992;5.924;2023-10-09T05:27:45;20.13;;;13.05;;
69401;SDS011;56589;51.992;5.924;2023-10-09T05:30:11;21.83;;;13.07;;
69401;SDS011;56589;51.992;5.924;2023-10-09T05:32:37;24.35;;;13.65;;
69401;SDS011;56589;51.992;5.924;2023-10-09T05:35:03;22.17;;;13.30;;
69401;SDS011;56589;51.992;5.924;2023-10-09T05:37:31;23.45;;;12.45;;
69401;SDS011;56589;51.992;5.924;2023-10-09T05:40:01;26.77;;;13.80;;
69401;SDS011;56589;51.992;5.924;2023-10-09T05:42:30;18.05;;;12.40;;
69401;SDS011;56589;51.992;5.924;2023-10-09T05:44:58;21.67;;;13.80;;
69401;SDS011;56589;51.992;5.924;2023-10-09T05:47:24;19.80;;;13.05;;
69401;SDS011;56589;51.992;5.924;2023-10-09T05:49:50;25.02;;;14.95;;
69401;SDS011;56589;51.992;5.924;2023-10-09T05:52:16;21.23;;;11.70;;
69401;SDS011;56589;51.992;5.924;2023-10-09T05:54:42;23.80;;;11.88;;
69401;SDS011;56589;51.992;5.924;2023-10-09T05:57:10;20.77;;;13.10;;
69401;SDS011;56589;51.992;5.924;2023-10-09T05:59:36;21.95;;;13.07;;
69401;SDS011;56589;51.992;5.924;2023-10-09T06:02:04;24.75;;;12.82;;
69401;SDS011;56589;51.992;5.924;2023-10-09T06:04:30;20.52;;;12.18;;
69401;SDS011;56589;51.992;5.924;2023-10-09T06:06:56;25.80;;;14.20;;
69401;SDS011;56589;51.992;5.924;2023-10-09T06:09:22;23.17;;;13.30;;
69401;SDS011;56589;51.992;5.924;2023-10-09T06:11:48;24.67;;;12.68;;
69401;SDS011;56589;51.992;5.924;2023-10-09T06:14:18;21.92;;;12.68;;
69401;SDS011;56589;51.992;5.924;2023-10-09T06:16:44;25.30;;;12.98;;
69401;SDS011;56589;51.992;5.924;2023-10-09T06:19:11;21.65;;;12.57;;
69401;SDS011;56589;51.992;5.924;2023-10-09T06:21:38;22.75;;;12.95;;
69401;SDS011;56589;51.992;5.924;2023-10-09T06:24:05;21.40;;;12.65;;
69401;SDS011;56589;51.992;5.924;2023-10-09T06:26:32;27.42;;;14.43;;
69401;SDS011;56589;51.992;5.924;2023-10-09T06:28:58;21.55;;;12.07;;
69401;SDS011;56589;51.992;5.924;2023-10-09T06:31:26;22.02;;;11.95;;
69401;SDS011;56589;51.992;5.924;2023-10-09T06:33:52;22.80;;;13.48;;
69401;SDS011;56589;51.992;5.924;2023-10-09T06:36:18;21.05;;;12.75;;
69401;SDS011;56589;51.992;5.924;2023-10-09T06:38:44;20.85;;;13.27;;
69401;SDS011;56589;51.992;5.924;2023-10-09T06:41:09;23.58;;;12.15;;
69401;SDS011;56589;51.992;5.924;2023-10-09T06:43:36;21.75;;;13.23;;
69401;SDS011;56589;51.992;5.924;2023-10-09T06:46:02;25.10;;;12.60;;
69401;SDS011;56589;51.992;5.924;2023-10-09T06:48:31;21.00;;;12.48;;
69401;SDS011;56589;51.992;5.924;2023-10-09T06:50:56;24.88;;;13.02;;
69401;SDS011;56589;51.992;5.924;2023-10-09T06:53:22;22.10;;;12.23;;
69401;SDS011;56589;51.992;5.924;2023-10-09T06:55:48;26.08;;;12.27;;
69401;SDS011;56589;51.992;5.924;2023-10-09T06:58:14;19.35;;;12.50;;
69401;SDS011;56589;51.992;5.924;2023-10-09T07:00:41;18.15;;;12.25;;
69401;SDS011;56589;51.992;5.924;2023-10-09T07:03:07;24.98;;;12.32;;
69401;SDS011;56589;51.992;5.924;2023-10-09T07:05:36;18.33;;;12.30;;
69401;SDS011;56589;51.992;5.924;2023-10-09T07:08:02;29.15;;;12.20;;
69401;SDS011;56589;51.992;5.924;2023-10-09T07:10:32;22.90;;;13.15;;
69401;SDS011;56589;51.992;5.924;2023-10-09T07:12:58;20.17;;;11.75;;
69401;SDS011;56589;51.992;5.924;2023-10-09T07:15:25;23.63;;;12.38;;
69401;SDS011;56589;51.992;5.924;2023-10-09T07:17:51;24.75;;;11.40;;
69401;SDS011;56589;51.992;5.924;2023-10-09T07:20:17;21.83;;;12.23;;
69401;SDS011;56589;51.992;5.924;2023-10-09T07:22:45;21.95;;;12.18;;
69401;SDS011;56589;51.992;5.924;2023-10-09T07:25:11;22.00;;;11.63;;
69401;SDS011;56589;51.992;5.924;2023-10-09T07:27:37;19.42;;;12.00;;
69401;SDS011;56589;51.992;5.924;2023-10-09T07:30:03;23.00;;;12.02;;
69401;SDS011;56589;51.992;5.924;2023-10-09T07:32:36;19.67;;;11.70;;
69401;SDS011;56589;51.992;5.924;2023-10-09T07:35:02;22.58;;;12.10;;
69401;SDS011;56589;51.992;5.924;2023-10-09T07:37:29;23.17;;;12.32;;
69401;SDS011;56589;51.992;5.924;2023-10-09T07:39:57;22.48;;;13.00;;
69401;SDS011;56589;51.992;5.924;2023-10-09T07:42:23;25.90;;;12.68;;
69401;SDS011;56589;51.992;5.924;2023-10-09T07:44:50;22.20;;;12.18;;
69401;SDS011;56589;51.992;5.924;2023-10-09T07:47:15;24.17;;;12.70;;
69401;SDS011;56589;51.992;5.924;2023-10-09T07:49:41;22.65;;;13.27;;
69401;SDS011;56589;51.992;5.924;2023-10-09T07:52:07;19.42;;;12.43;;
69401;SDS011;56589;51.992;5.924;2023-10-09T07:54:33;23.65;;;13.02;;
69401;SDS011;56589;51.992;5.924;2023-10-09T07:57:01;29.92;;;13.60;;
69401;SDS011;56589;51.992;5.924;2023-10-09T07:59:27;23.63;;;13.68;;
69401;SDS011;56589;51.992;5.924;2023-10-09T08:01:53;22.83;;;12.20;;
69401;SDS011;56589;51.992;5.924;2023-10-09T08:04:19;28.45;;;13.30;;
69401;SDS011;56589;51.992;5.924;2023-10-09T08:06:44;23.90;;;13.18;;
69401;SDS011;56589;51.992;5.924;2023-10-09T08:09:11;24.90;;;14.10;;
69401;SDS011;56589;51.992;5.924;2023-10-09T08:11:37;23.02;;;12.88;;
69401;SDS011;56589;51.992;5.924;2023-10-09T08:14:06;28.17;;;12.70;;
69401;SDS011;56589;51.992;5.924;2023-10-09T08:16:31;24.70;;;13.30;;
69401;SDS011;56589;51.992;5.924;2023-10-09T08:18:57;19.50;;;12.18;;
69401;SDS011;56589;51.992;5.924;2023-10-09T08:21:23;27.30;;;13.27;;
69401;SDS011;56589;51.992;5.924;2023-10-09T08:23:49;21.52;;;12.50;;
69401;SDS011;56589;51.992;5.924;2023-10-09T08:26:15;21.35;;;12.38;;
69401;SDS011;56589;51.992;5.924;2023-10-09T08:28:42;23.67;;;13.25;;
69401;SDS011;56589;51.992;5.924;2023-10-09T08:31:13;21.02;;;13.40;;
69401;SDS011;56589;51.992;5.924;2023-10-09T08:33:42;23.88;;;12.98;;
69401;SDS011;56589;51.992;5.924;2023-10-09T08:36:09;22.15;;;12.77;;
69401;SDS011;56589;51.992;5.924;2023-10-09T08:38:36;22.70;;;12.85;;
69401;SDS011;56589;51.992;5.924;2023-10-09T08:41:08;24.40;;;13.20;;
69401;SDS011;56589;51.992;5.924;2023-10-09T08:43:35;21.27;;;12.07;;
69401;SDS011;56589;51.992;5.924;2023-10-09T08:46:14;22.83;;;12.32;;
69401;SDS011;56589;51.992;5.924;2023-10-09T08:48:42;20.77;;;11.38;;
69401;SDS011;56589;51.992;5.924;2023-10-09T08:51:09;22.52;;;10.90;;
69401;SDS011;56589;51.992;5.924;2023-10-09T08:53:35;20.98;;;11.60;;
69401;SDS011;56589;51.992;5.924;2023-10-09T08:56:04;22.80;;;12.27;;
69401;SDS011;56589;51.992;5.924;2023-10-09T08:58:30;22.67;;;11.95;;
69401;SDS011;56589;51.992;5.924;2023-10-09T09:00:56;22.40;;;13.00;;
69401;SDS011;56589;51.992;5.924;2023-10-09T09:03:24;24.17;;;12.25;;
69401;SDS011;56589;51.992;5.924;2023-10-09T09:05:56;21.98;;;11.07;;
69401;SDS011;56589;51.992;5.924;2023-10-09T09:08:24;18.05;;;11.25;;
69401;SDS011;56589;51.992;5.924;2023-10-09T09:10:56;22.52;;;10.55;;
69401;SDS011;56589;51.992;5.924;2023-10-09T09:13:22;21.23;;;11.18;;
69401;SDS011;56589;51.992;5.924;2023-10-09T09:15:48;16.85;;;10.98;;
69401;SDS011;56589;51.992;5.924;2023-10-09T09:18:14;20.45;;;10.50;;
69401;SDS011;56589;51.992;5.924;2023-10-09T09:20:43;16.70;;;10.77;;
69401;SDS011;56589;51.992;5.924;2023-10-09T09:23:09;15.43;;;10.35;;
69401;SDS011;56589;51.992;5.924;2023-10-09T09:25:41;21.63;;;11.63;;
69401;SDS011;56589;51.992;5.924;2023-10-09T09:28:11;24.10;;;10.65;;
69401;SDS011;56589;51.992;5.924;2023-10-09T09:30:38;17.95;;;10.20;;
69401;SDS011;56589;51.992;5.924;2023-10-09T09:33:16;18.42;;;10.13;;
69401;SDS011;56589;51.992;5.924;2023-10-09T09:35:57;17.77;;;10.10;;
69401;SDS011;56589;51.992;5.924;2023-10-09T09:38:27;22.85;;;10.80;;
69401;SDS011;56589;51.992;5.924;2023-10-09T09:40:55;24.05;;;11.23;;
69401;SDS011;56589;51.992;5.924;2023-10-09T09:43:22;16.45;;;10.00;;
69401;SDS011;56589;51.992;5.924;2023-10-09T09:45:50;18.17;;;9.65;;
69401;SDS011;56589;51.992;5.924;2023-10-09T09:48:18;23.00;;;11.13;;
69401;SDS011;56589;51.992;5.924;2023-10-09T09:50:44;16.35;;;8.98;;
69401;SDS011;56589;51.992;5.924;2023-10-09T09:53:13;21.42;;;9.55;;
69401;SDS011;56589;51.992;5.924;2023-10-09T09:55:41;20.20;;;9.88;;
69401;SDS011;56589;51.992;5.924;2023-10-09T09:58:11;18.30;;;8.95;;
69401;SDS011;56589;51.992;5.924;2023-10-09T10:00:43;17.85;;;7.78;;
69401;SDS011;56589;51.992;5.924;2023-10-09T10:03:10;14.55;;;7.65;;
69401;SDS011;56589;51.992;5.924;2023-10-09T10:05:41;20.90;;;7.85;;
69401;SDS011;56589;51.992;5.924;2023-10-09T10:08:09;18.63;;;7.70;;
69401;SDS011;56589;51.992;5.924;2023-10-09T10:10:40;16.10;;;7.82;;
69401;SDS011;56589;51.992;5.924;2023-10-09T10:13:06;13.50;;;6.53;;
69401;SDS011;56589;51.992;5.924;2023-10-09T10:18:32;13.23;;;6.60;;
69401;SDS011;56589;51.992;5.924;2023-10-09T10:21:10;16.00;;;7.10;;
69401;SDS011;56589;51.992;5.924;2023-10-09T10:23:42;15.65;;;7.15;;
69401;SDS011;56589;51.992;5.924;2023-10-09T10:26:17;14.55;;;7.10;;
69401;SDS011;56589;51.992;5.924;2023-10-09T10:28:45;16.42;;;6.32;;
69401;SDS011;56589;51.992;5.924;2023-10-09T10:31:56;13.07;;;7.30;;
69401;SDS011;56589;51.992;5.924;2023-10-09T10:34:24;12.90;;;5.93;;
69401;SDS011;56589;51.992;5.924;2023-10-09T10:36:51;16.38;;;6.95;;
69401;SDS011;56589;51.992;5.924;2023-10-09T10:39:21;17.25;;;6.38;;
69401;SDS011;56589;51.992;5.924;2023-10-09T10:41:57;15.20;;;6.28;;
69401;SDS011;56589;51.992;5.924;2023-10-09T10:44:26;15.95;;;6.43;;
69401;SDS011;56589;51.992;5.924;2023-10-09T10:46:53;13.23;;;5.75;;
69401;SDS011;56589;51.992;5.924;2023-10-09T10:49:19;12.35;;;5.85;;
69401;SDS011;56589;51.992;5.924;2023-10-09T10:51:46;13.45;;;6.10;;
69401;SDS011;56589;51.992;5.924;2023-10-09T10:54:19;12.18;;;5.70;;
69401;SDS011;56589;51.992;5.924;2023-10-09T10:56:50;11.52;;;5.28;;
69401;SDS011;56589;51.992;5.924;2023-10-09T10:59:16;11.05;;;5.88;;
69401;SDS011;56589;51.992;5.924;2023-10-09T11:01:42;9.45;;;5.30;;
69401;SDS011;56589;51.992;5.924;2023-10-09T11:04:10;15.35;;;6.60;;
69401;SDS011;56589;51.992;5.924;2023-10-09T11:06:37;13.07;;;5.50;;
69401;SDS011;56589;51.992;5.924;2023-10-09T11:09:03;13.05;;;5.38;;
69401;SDS011;56589;51.992;5.924;2023-10-09T11:11:34;13.70;;;5.43;;
69401;SDS011;56589;51.992;5.924;2023-10-09T11:14:07;11.13;;;5.63;;
69401;SDS011;56589;51.992;5.924;2023-10-09T11:16:35;13.30;;;5.32;;
69401;SDS011;56589;51.992;5.924;2023-10-09T11:19:01;11.98;;;4.90;;
69401;SDS011;56589;51.992;5.924;2023-10-09T11:21:27;14.45;;;6.35;;
69401;SDS011;56589;51.992;5.924;2023-10-09T11:23:53;11.82;;;5.63;;
69401;SDS011;56589;51.992;5.924;2023-10-09T11:26:19;9.50;;;4.95;;
69401;SDS011;56589;51.992;5.924;2023-10-09T11:28:49;11.43;;;5.20;;
69401;SDS011;56589;51.992;5.924;2023-10-09T11:31:32;13.60;;;5.07;;
69401;SDS011;56589;51.992;5.924;2023-10-09T11:33:57;14.13;;;5.63;;
69401;SDS011;56589;51.992;5.924;2023-10-09T11:36:23;10.00;;;4.72;;
69401;SDS011;56589;51.992;5.924;2023-10-09T11:38:49;14.00;;;5.40;;
69401;SDS011;56589;51.992;5.924;2023-10-09T11:41:15;13.90;;;5.13;;
69401;SDS011;56589;51.992;5.924;2023-10-09T11:43:45;16.67;;;5.30;;
69401;SDS011;56589;51.992;5.924;2023-10-09T11:46:15;16.08;;;5.00;;
69401;SDS011;56589;51.992;5.924;2023-10-09T11:48:41;13.45;;;5.03;;
69401;SDS011;56589;51.992;5.924;2023-10-09T11:51:11;13.45;;;4.93;;
69401;SDS011;56589;51.992;5.924;2023-10-09T11:53:39;29.77;;;8.98;;
69401;SDS011;56589;51.992;5.924;2023-10-09T11:56:05;13.73;;;5.07;;
69401;SDS011;56589;51.992;5.924;2023-10-09T11:58:31;12.63;;;4.93;;
69401;SDS011;56589;51.992;5.924;2023-10-09T12:01:10;11.10;;;4.57;;
69401;SDS011;56589;51.992;5.924;2023-10-09T12:03:37;15.00;;;4.82;;
69401;SDS011;56589;51.992;5.924;2023-10-09T12:06:04;11.93;;;4.82;;
69401;SDS011;56589;51.992;5.924;2023-10-09T12:08:30;11.27;;;4.63;;
69401;SDS011;56589;51.992;5.924;2023-10-09T12:10:56;10.93;;;4.68;;
69401;SDS011;56589;51.992;5.924;2023-10-09T12:13:22;9.88;;;4.30;;
69401;SDS011;56589;51.992;5.924;2023-10-09T12:15:49;13.48;;;4.97;;
69401;SDS011;56589;51.992;5.924;2023-10-09T12:18:18;13.40;;;4.13;;
69401;SDS011;56589;51.992;5.924;2023-10-09T12:20:46;11.25;;;4.72;;
69401;SDS011;56589;51.992;5.924;2023-10-09T12:23:12;11.48;;;4.28;;
69401;SDS011;56589;51.992;5.924;2023-10-09T12:25:37;9.63;;;4.25;;
69401;SDS011;56589;51.992;5.924;2023-10-09T12:28:03;12.60;;;4.00;;
69401;SDS011;56589;51.992;5.924;2023-10-09T12:30:30;13.48;;;4.18;;
69401;SDS011;56589;51.992;5.924;2023-10-09T12:32:57;7.97;;;3.70;;
69401;SDS011;56589;51.992;5.924;2023-10-09T12:35:26;8.48;;;3.65;;
69401;SDS011;56589;51.992;5.924;2023-10-09T12:37:52;12.18;;;3.60;;
69401;SDS011;56589;51.992;5.924;2023-10-09T12:40:19;12.52;;;4.20;;
69401;SDS011;56589;51.992;5.924;2023-10-09T12:42:45;12.55;;;3.95;;
69401;SDS011;56589;51.992;5.924;2023-10-09T12:45:11;8.93;;;4.05;;
69401;SDS011;56589;51.992;5.924;2023-10-09T12:47:37;9.20;;;3.78;;
69401;SDS011;56589;51.992;5.924;2023-10-09T12:50:03;11.88;;;4.15;;
69401;SDS011;56589;51.992;5.924;2023-10-09T12:52:33;9.82;;;4.20;;
69401;SDS011;56589;51.992;5.924;2023-10-09T12:54:59;11.73;;;3.88;;
69401;SDS011;56589;51.992;5.924;2023-10-09T12:57:25;10.23;;;4.55;;
69401;SDS011;56589;51.992;5.924;2023-10-09T12:59:51;14.52;;;4.47;;
69401;SDS011;56589;51.992;5.924;2023-10-09T13:02:18;12.73;;;4.68;;
69401;SDS011;56589;51.992;5.924;2023-10-09T13:04:44;11.18;;;4.65;;
69401;SDS011;56589;51.992;5.924;2023-10-09T13:07:10;16.40;;;4.25;;
69401;SDS011;56589;51.992;5.924;2023-10-09T13:09:38;9.13;;;4.05;;
69401;SDS011;56589;51.992;5.924;2023-10-09T13:12:04;9.30;;;4.00;;
69401;SDS011;56589;51.992;5.924;2023-10-09T13:14:31;10.85;;;4.10;;
69401;SDS011;56589;51.992;5.924;2023-10-09T13:16:57;14.15;;;4.55;;
69401;SDS011;56589;51.992;5.924;2023-10-09T13:19:23;14.23;;;4.10;;
69401;SDS011;56589;51.992;5.924;2023-10-09T13:21:49;10.57;;;3.80;;
69401;SDS011;56589;51.992;5.924;2023-10-09T13:24:15;12.43;;;4.25;;
69401;SDS011;56589;51.992;5.924;2023-10-09T13:26:44;10.90;;;4.35;;
69401;SDS011;56589;51.992;5.924;2023-10-09T13:29:10;7.82;;;4.30;;
69401;SDS011;56589;51.992;5.924;2023-10-09T13:31:37;9.50;;;3.90;;
69401;SDS011;56589;51.992;5.924;2023-10-09T13:34:04;9.02;;;4.10;;
69401;SDS011;56589;51.992;5.924;2023-10-09T13:36:31;7.45;;;3.80;;
69401;SDS011;56589;51.992;5.924;2023-10-09T13:38:57;11.88;;;4.30;;
69401;SDS011;56589;51.992;5.924;2023-10-09T13:41:25;12.68;;;3.90;;
69401;SDS011;56589;51.992;5.924;2023-10-09T13:43:53;10.10;;;4.38;;
69401;SDS011;56589;51.992;5.924;2023-10-09T13:46:19;11.00;;;3.72;;
69401;SDS011;56589;51.992;5.924;2023-10-09T13:48:45;12.95;;;5.22;;
69401;SDS011;56589;51.992;5.924;2023-10-09T13:51:11;10.20;;;4.60;;
69401;SDS011;56589;51.992;5.924;2023-10-09T13:53:38;10.20;;;4.53;;
69401;SDS011;56589;51.992;5.924;2023-10-09T13:56:04;11.25;;;4.00;;
69401;SDS011;56589;51.992;5.924;2023-10-09T13:58:35;11.95;;;4.63;;
69401;SDS011;56589;51.992;5.924;2023-10-09T14:01:03;10.30;;;3.85;;
69401;SDS011;56589;51.992;5.924;2023-10-09T14:03:30;15.73;;;4.32;;
69401;SDS011;56589;51.992;5.924;2023-10-09T14:05:56;11.25;;;4.20;;
69401;SDS011;56589;51.992;5.924;2023-10-09T14:08:22;12.63;;;4.22;;
69401;SDS011;56589;51.992;5.924;2023-10-09T14:10:48;18.55;;;4.07;;
69401;SDS011;56589;51.992;5.924;2023-10-09T14:13:14;12.82;;;3.60;;
69401;SDS011;56589;51.992;5.924;2023-10-09T14:15:40;9.43;;;3.95;;
69401;SDS011;56589;51.992;5.924;2023-10-09T14:18:08;13.25;;;4.40;;
69401;SDS011;56589;51.992;5.924;2023-10-09T14:20:34;15.95;;;4.30;;
69401;SDS011;56589;51.992;5.924;2023-10-09T14:23:00;11.02;;;4.07;;
69401;SDS011;56589;51.992;5.924;2023-10-09T14:25:28;7.57;;;4.22;;
69401;SDS011;56589;51.992;5.924;2023-10-09T14:27:54;8.90;;;4.05;;
69401;SDS011;56589;51.992;5.924;2023-10-09T14:30:20;11.07;;;4.15;;
69401;SDS011;56589;51.992;5.924;2023-10-09T14:32:46;10.38;;;3.90;;